This is the latest recevied weather packets stored in our database for station/object KU5D-13. If no packets are shown the sender has not sent any weather packets the latest 10 day(s).
| Time | Temp. | Humidity | Pressure | Rain* | Wind** | Luminosity | Snow |
|---|---|---|---|---|---|---|---|
| 1778167815 | 12.22° C | 62% | 1034.3 hPa | 0 mm | - | 846 W/m² | - |
| 1778163635 | 8.89° C | 66% | 1038.8 hPa | 0 mm | - | 576 W/m² | - |
| 1778159416 | 5.56° C | 70% | 1043 hPa | 0 mm | - | 279 W/m² | - |
| 1778156436 | 3.89° C | 72% | 1045.6 hPa | 0 mm | - | 110 W/m² | - |
| 1778153886 | 1.67° C | 74% | 1047.9 hPa | 0 mm | - | 14 W/m² | - |
| 1778119203 | 9.44° C | 27% | 1038.3 hPa | 0 mm | - | 0 W/m² | - |
| 1778118604 | 9.44° C | 27% | 1038.3 hPa | 0 mm | - | 0 W/m² | - |
| 1778117404 | 9.44° C | 27% | 1038.3 hPa | 0 mm | - | 0 W/m² | - |
| 1778116204 | 9.44° C | 27% | 1038.3 hPa | 0 mm | - | 0 W/m² | - |
| 1778113804 | 9.44° C | 27% | 1038.3 hPa | 0 mm | - | 0 W/m² | - |
| 1778109004 | 9.44° C | 27% | 1038.3 hPa | 0 mm | - | 0 W/m² | - |
| 1778106004 | 9.44° C | 27% | 1038.3 hPa | 0 mm | - | 0 W/m² | - |
| 1778096404 | 9.44° C | 27% | 1038.3 hPa | 0 mm | - | 0 W/m² | - |
| 1778095204 | 9.44° C | 27% | 1038.3 hPa | 0 mm | - | 0 W/m² | - |
| 1778092803 | 9.44° C | 27% | 1038.3 hPa | 0 mm | - | 0 W/m² | - |
| 1778085604 | 9.44° C | 27% | 1038.3 hPa | 0 mm | - | 0 W/m² | - |
| 1778085004 | 9.44° C | 27% | 1038.3 hPa | 0 mm | - | 0 W/m² | - |
| 1778083805 | 9.44° C | 27% | 1038.3 hPa | 0 mm | - | 0 W/m² | - |
| 1778079017 | 7.78° C | 23% | 989.6 hPa | 0 mm | - | 701 W/m² | - |
| 1778074237 | 11.67° C | 25% | 992.4 hPa | 0 mm | - | 360 W/m² | - |
| 1778071817 | 13.33° C | 27% | 994.2 hPa | 0 mm | - | 204 W/m² | - |
| 1778070617 | 14.44° C | 27% | 995.1 hPa | 0 mm | - | 139 W/m² | - |
| 1778065817 | 17.22° C | 31% | 999.4 hPa | 0 mm | - | 1 W/m² | - |
| 1778063418 | 18.89° C | 33% | 1001.8 hPa | 0 mm | - | 0 W/m² | - |
| 1778060417 | 20° C | 36% | 1004.9 hPa | 0 mm | - | 0 W/m² | - |
* Rain latest hour (hover to see other rain measurements)
** Current wind speed in m/s (hover to see current wind gust speed)